sensor_id;sensor_type;location;lat;lon;timestamp;pressure;altitude;pressure_sealevel;temperature;humidity
57024;BME280;42916;54.346;18.562;2023-04-30T00:02:14;100343.20;;;5.54;77.40
57024;BME280;42916;54.346;18.562;2023-04-30T00:04:41;100340.23;;;5.50;77.04
57024;BME280;42916;54.346;18.562;2023-04-30T00:07:08;100342.43;;;5.47;77.37
57024;BME280;42916;54.346;18.562;2023-04-30T00:09:34;100341.45;;;5.45;77.19
57024;BME280;42916;54.346;18.562;2023-04-30T00:12:01;100338.69;;;5.43;77.24
57024;BME280;42916;54.346;18.562;2023-04-30T00:14:28;100338.01;;;5.41;77.44
57024;BME280;42916;54.346;18.562;2023-04-30T00:16:54;100348.20;;;5.38;77.34
57024;BME280;42916;54.346;18.562;2023-04-30T00:19:21;100347.17;;;5.34;77.49
57024;BME280;42916;54.346;18.562;2023-04-30T00:21:48;100351.98;;;5.29;77.50
57024;BME280;42916;54.346;18.562;2023-04-30T00:24:15;100356.83;;;5.24;77.64
57024;BME280;42916;54.346;18.562;2023-04-30T00:26:41;100352.66;;;5.18;77.59
57024;BME280;42916;54.346;18.562;2023-04-30T00:29:10;100355.86;;;5.14;77.48
57024;BME280;42916;54.346;18.562;2023-04-30T00:31:36;100359.00;;;5.09;77.87
57024;BME280;42916;54.346;18.562;2023-04-30T00:34:03;100364.08;;;5.06;78.37
57024;BME280;42916;54.346;18.562;2023-04-30T00:36:30;100369.08;;;5.04;77.95
57024;BME280;42916;54.346;18.562;2023-04-30T00:38:57;100372.95;;;5.02;78.01
57024;BME280;42916;54.346;18.562;2023-04-30T00:41:24;100373.64;;;4.99;78.17
57024;BME280;42916;54.346;18.562;2023-04-30T00:43:51;100374.66;;;4.95;78.40
57024;BME280;42916;54.346;18.562;2023-04-30T00:46:18;100379.21;;;4.91;78.19
57024;BME280;42916;54.346;18.562;2023-04-30T00:48:45;100377.96;;;4.86;78.05
57024;BME280;42916;54.346;18.562;2023-04-30T00:51:12;100381.06;;;4.82;78.08
57024;BME280;42916;54.346;18.562;2023-04-30T00:53:39;100383.00;;;4.77;78.27
57024;BME280;42916;54.346;18.562;2023-04-30T00:56:08;100385.94;;;4.73;78.14
57024;BME280;42916;54.346;18.562;2023-04-30T00:58:36;100383.63;;;4.68;78.01
57024;BME280;42916;54.346;18.562;2023-04-30T01:01:02;100383.06;;;4.66;78.13
57024;BME280;42916;54.346;18.562;2023-04-30T01:03:29;100382.28;;;4.64;78.35
57024;BME280;42916;54.346;18.562;2023-04-30T01:05:56;100384.16;;;4.62;78.83
57024;BME280;42916;54.346;18.562;2023-04-30T01:08:23;100380.95;;;4.60;78.71
57024;BME280;42916;54.346;18.562;2023-04-30T01:13:37;100382.42;;;4.54;78.97
57024;BME280;42916;54.346;18.562;2023-04-30T01:16:29;100391.61;;;4.50;78.74
57024;BME280;42916;54.346;18.562;2023-04-30T01:19:08;100390.42;;;4.47;78.80
57024;BME280;42916;54.346;18.562;2023-04-30T01:21:41;100390.52;;;4.45;79.14
57024;BME280;42916;54.346;18.562;2023-04-30T01:29:55;100397.89;;;4.36;79.29
57024;BME280;42916;54.346;18.562;2023-04-30T01:32:24;100402.71;;;4.32;79.60
57024;BME280;42916;54.346;18.562;2023-04-30T01:34:51;100401.61;;;4.28;79.60
57024;BME280;42916;54.346;18.562;2023-04-30T01:46:32;100417.52;;;4.16;79.82
57024;BME280;42916;54.346;18.562;2023-04-30T01:51:40;100417.42;;;4.11;80.20
57024;BME280;42916;54.346;18.562;2023-04-30T01:54:37;100423.98;;;4.08;80.83
57024;BME280;42916;54.346;18.562;2023-04-30T01:57:40;100426.23;;;4.05;80.63
57024;BME280;42916;54.346;18.562;2023-04-30T02:00:08;100427.92;;;4.03;80.65
57024;BME280;42916;54.346;18.562;2023-04-30T02:02:39;100428.45;;;4.03;81.02
57024;BME280;42916;54.346;18.562;2023-04-30T02:05:07;100425.81;;;4.00;81.24
57024;BME280;42916;54.346;18.562;2023-04-30T02:07:42;100426.52;;;3.98;80.56
57024;BME280;42916;54.346;18.562;2023-04-30T02:10:10;100433.45;;;3.94;80.64
57024;BME280;42916;54.346;18.562;2023-04-30T02:12:40;100432.10;;;3.90;81.49
57024;BME280;42916;54.346;18.562;2023-04-30T02:15:08;100436.08;;;3.88;81.39
57024;BME280;42916;54.346;18.562;2023-04-30T02:17:35;100435.83;;;3.86;81.44
57024;BME280;42916;54.346;18.562;2023-04-30T02:20:02;100432.86;;;3.84;81.79
57024;BME280;42916;54.346;18.562;2023-04-30T02:22:29;100436.63;;;3.82;82.06
57024;BME280;42916;54.346;18.562;2023-04-30T02:24:55;100437.48;;;3.79;81.99
57024;BME280;42916;54.346;18.562;2023-04-30T02:27:24;100441.94;;;3.77;82.12
57024;BME280;42916;54.346;18.562;2023-04-30T02:29:54;100442.02;;;3.73;81.91
57024;BME280;42916;54.346;18.562;2023-04-30T02:32:20;100446.98;;;3.72;81.84
57024;BME280;42916;54.346;18.562;2023-04-30T02:34:48;100445.22;;;3.71;81.81
57024;BME280;42916;54.346;18.562;2023-04-30T02:37:15;100450.91;;;3.68;82.04
57024;BME280;42916;54.346;18.562;2023-04-30T02:39:42;100449.84;;;3.66;82.26
57024;BME280;42916;54.346;18.562;2023-04-30T02:42:08;100449.98;;;3.62;82.47
57024;BME280;42916;54.346;18.562;2023-04-30T02:44:35;100444.30;;;3.59;82.30
57024;BME280;42916;54.346;18.562;2023-04-30T02:47:02;100452.05;;;3.57;82.83
57024;BME280;42916;54.346;18.562;2023-04-30T02:49:28;100455.27;;;3.56;83.18
57024;BME280;42916;54.346;18.562;2023-04-30T02:51:55;100459.83;;;3.54;82.77
57024;BME280;42916;54.346;18.562;2023-04-30T02:54:22;100460.58;;;3.50;82.84
57024;BME280;42916;54.346;18.562;2023-04-30T02:56:49;100467.20;;;3.47;83.46
57024;BME280;42916;54.346;18.562;2023-04-30T02:59:16;100466.53;;;3.41;83.92
57024;BME280;42916;54.346;18.562;2023-04-30T03:01:43;100465.38;;;3.36;83.94
57024;BME280;42916;54.346;18.562;2023-04-30T03:04:09;100463.92;;;3.32;83.91
57024;BME280;42916;54.346;18.562;2023-04-30T03:06:36;100468.36;;;3.30;83.54
57024;BME280;42916;54.346;18.562;2023-04-30T03:09:03;100467.84;;;3.28;83.93
57024;BME280;42916;54.346;18.562;2023-04-30T03:11:29;100472.02;;;3.26;84.17
57024;BME280;42916;54.346;18.562;2023-04-30T03:13:56;100477.11;;;3.26;84.58
57024;BME280;42916;54.346;18.562;2023-04-30T03:16:23;100471.15;;;3.25;84.49
57024;BME280;42916;54.346;18.562;2023-04-30T03:18:50;100473.67;;;3.23;85.34
57024;BME280;42916;54.346;18.562;2023-04-30T03:21:17;100473.54;;;3.20;85.03
57024;BME280;42916;54.346;18.562;2023-04-30T03:23:44;100476.07;;;3.19;85.19
57024;BME280;42916;54.346;18.562;2023-04-30T03:26:12;100475.37;;;3.20;85.56
57024;BME280;42916;54.346;18.562;2023-04-30T03:28:38;100478.15;;;3.22;85.65
57024;BME280;42916;54.346;18.562;2023-04-30T03:31:05;100484.69;;;3.24;86.35
57024;BME280;42916;54.346;18.562;2023-04-30T03:33:32;100485.01;;;3.27;85.76
57024;BME280;42916;54.346;18.562;2023-04-30T03:36:00;100492.95;;;3.27;85.89
57024;BME280;42916;54.346;18.562;2023-04-30T03:38:27;100491.55;;;3.27;86.29
57024;BME280;42916;54.346;18.562;2023-04-30T03:40:53;100496.41;;;3.26;86.10
57024;BME280;42916;54.346;18.562;2023-04-30T03:43:20;100495.35;;;3.27;86.41
57024;BME280;42916;54.346;18.562;2023-04-30T03:45:47;100503.10;;;3.30;87.12
57024;BME280;42916;54.346;18.562;2023-04-30T03:48:14;100502.19;;;3.32;86.95
57024;BME280;42916;54.346;18.562;2023-04-30T03:50:41;100505.90;;;3.34;86.69
57024;BME280;42916;54.346;18.562;2023-04-30T03:53:08;100508.98;;;3.35;86.75
57024;BME280;42916;54.346;18.562;2023-04-30T03:55:35;100514.80;;;3.36;86.58
57024;BME280;42916;54.346;18.562;2023-04-30T03:58:02;100519.48;;;3.37;87.38
57024;BME280;42916;54.346;18.562;2023-04-30T04:00:29;100520.56;;;3.40;86.94
57024;BME280;42916;54.346;18.562;2023-04-30T04:02:57;100520.44;;;3.44;86.78
57024;BME280;42916;54.346;18.562;2023-04-30T04:05:25;100527.57;;;3.48;87.18
57024;BME280;42916;54.346;18.562;2023-04-30T04:07:52;100526.00;;;3.52;87.44
57024;BME280;42916;54.346;18.562;2023-04-30T04:10:18;100522.44;;;3.54;87.43
57024;BME280;42916;54.346;18.562;2023-04-30T04:12:46;100525.80;;;3.57;87.08
57024;BME280;42916;54.346;18.562;2023-04-30T04:15:12;100528.57;;;3.61;87.99
57024;BME280;42916;54.346;18.562;2023-04-30T04:17:39;100525.05;;;3.66;88.14
57024;BME280;42916;54.346;18.562;2023-04-30T04:20:07;100528.48;;;3.70;87.85
57024;BME280;42916;54.346;18.562;2023-04-30T04:22:34;100531.59;;;3.75;87.98
57024;BME280;42916;54.346;18.562;2023-04-30T04:25:01;100529.84;;;3.81;88.74
57024;BME280;42916;54.346;18.562;2023-04-30T04:27:29;100538.26;;;3.85;88.48
57024;BME280;42916;54.346;18.562;2023-04-30T04:29:56;100537.55;;;3.90;88.26
57024;BME280;42916;54.346;18.562;2023-04-30T04:32:22;100543.52;;;3.96;88.44
57024;BME280;42916;54.346;18.562;2023-04-30T04:34:49;100541.61;;;4.04;88.56
57024;BME280;42916;54.346;18.562;2023-04-30T04:37:16;100553.98;;;4.12;88.40
57024;BME280;42916;54.346;18.562;2023-04-30T04:39:43;100555.13;;;4.18;88.86
57024;BME280;42916;54.346;18.562;2023-04-30T04:42:11;100551.04;;;4.23;88.96
57024;BME280;42916;54.346;18.562;2023-04-30T04:44:38;100548.27;;;4.29;89.04
57024;BME280;42916;54.346;18.562;2023-04-30T04:47:05;100554.10;;;4.35;88.91
57024;BME280;42916;54.346;18.562;2023-04-30T04:49:32;100558.69;;;4.43;88.59
57024;BME280;42916;54.346;18.562;2023-04-30T04:51:58;100560.95;;;4.51;89.29
57024;BME280;42916;54.346;18.562;2023-04-30T04:54:27;100560.64;;;4.59;89.18
57024;BME280;42916;54.346;18.562;2023-04-30T04:56:54;100563.01;;;4.67;89.22
57024;BME280;42916;54.346;18.562;2023-04-30T04:59:21;100565.64;;;4.75;89.27
57024;BME280;42916;54.346;18.562;2023-04-30T05:01:48;100571.09;;;4.84;88.71
57024;BME280;42916;54.346;18.562;2023-04-30T05:04:15;100573.00;;;4.93;88.52
57024;BME280;42916;54.346;18.562;2023-04-30T05:06:42;100577.20;;;5.02;88.65
57024;BME280;42916;54.346;18.562;2023-04-30T05:09:08;100575.79;;;5.09;88.73
57024;BME280;42916;54.346;18.562;2023-04-30T05:11:35;100585.17;;;5.15;88.55
57024;BME280;42916;54.346;18.562;2023-04-30T05:14:02;100583.58;;;5.21;88.39
57024;BME280;42916;54.346;18.562;2023-04-30T05:16:28;100584.27;;;5.28;88.16
57024;BME280;42916;54.346;18.562;2023-04-30T05:18:55;100590.95;;;5.37;88.08
57024;BME280;42916;54.346;18.562;2023-04-30T05:21:22;100590.23;;;5.42;88.09
57024;BME280;42916;54.346;18.562;2023-04-30T05:23:49;100598.15;;;5.49;87.87
57024;BME280;42916;54.346;18.562;2023-04-30T05:26:15;100596.55;;;5.55;87.68
57024;BME280;42916;54.346;18.562;2023-04-30T05:28:42;100602.05;;;5.63;87.41
57024;BME280;42916;54.346;18.562;2023-04-30T05:31:09;100605.25;;;5.70;87.22
57024;BME280;42916;54.346;18.562;2023-04-30T05:33:36;100609.48;;;5.77;87.02
57024;BME280;42916;54.346;18.562;2023-04-30T05:36:03;100610.55;;;5.84;86.96
57024;BME280;42916;54.346;18.562;2023-04-30T05:38:30;100620.80;;;5.91;86.62
57024;BME280;42916;54.346;18.562;2023-04-30T05:40:56;100621.45;;;5.94;86.12
57024;BME280;42916;54.346;18.562;2023-04-30T05:43:23;100619.41;;;5.97;86.05
57024;BME280;42916;54.346;18.562;2023-04-30T05:45:50;100620.23;;;6.05;85.93
57024;BME280;42916;54.346;18.562;2023-04-30T05:48:16;100626.17;;;6.14;85.68
57024;BME280;42916;54.346;18.562;2023-04-30T05:50:43;100631.91;;;6.20;85.48
57024;BME280;42916;54.346;18.562;2023-04-30T05:53:10;100632.49;;;6.24;85.28
57024;BME280;42916;54.346;18.562;2023-04-30T05:55:37;100626.59;;;6.30;85.18
57024;BME280;42916;54.346;18.562;2023-04-30T05:58:03;100643.35;;;6.37;84.88
57024;BME280;42916;54.346;18.562;2023-04-30T06:00:30;100639.29;;;6.40;83.98
57024;BME280;42916;54.346;18.562;2023-04-30T06:02:57;100633.06;;;6.45;83.86
57024;BME280;42916;54.346;18.562;2023-04-30T06:05:23;100635.60;;;6.54;83.84
57024;BME280;42916;54.346;18.562;2023-04-30T06:07:50;100648.01;;;6.60;83.27
57024;BME280;42916;54.346;18.562;2023-04-30T06:10:17;100652.02;;;6.60;82.26
57024;BME280;42916;54.346;18.562;2023-04-30T06:12:44;100657.00;;;6.55;81.92
57024;BME280;42916;54.346;18.562;2023-04-30T06:15:11;100655.81;;;6.54;81.97
57024;BME280;42916;54.346;18.562;2023-04-30T06:17:37;100658.52;;;6.57;81.96
57024;BME280;42916;54.346;18.562;2023-04-30T06:20:05;100660.96;;;6.63;81.69
57024;BME280;42916;54.346;18.562;2023-04-30T06:22:32;100666.98;;;6.65;81.17
57024;BME280;42916;54.346;18.562;2023-04-30T06:24:59;100666.36;;;6.68;80.99
57024;BME280;42916;54.346;18.562;2023-04-30T06:27:27;100663.83;;;6.72;80.62
57024;BME280;42916;54.346;18.562;2023-04-30T06:29:53;100669.85;;;6.76;80.48
57024;BME280;42916;54.346;18.562;2023-04-30T06:32:20;100663.34;;;6.84;80.80
57024;BME280;42916;54.346;18.562;2023-04-30T06:34:47;100670.62;;;6.95;80.45
57024;BME280;42916;54.346;18.562;2023-04-30T06:37:14;100666.64;;;7.04;79.64
57024;BME280;42916;54.346;18.562;2023-04-30T06:39:41;100676.33;;;7.13;79.55
57024;BME280;42916;54.346;18.562;2023-04-30T06:42:07;100675.94;;;7.22;79.22
57024;BME280;42916;54.346;18.562;2023-04-30T06:44:34;100678.52;;;7.25;77.04
57024;BME280;42916;54.346;18.562;2023-04-30T06:47:01;100672.64;;;7.28;77.37
57024;BME280;42916;54.346;18.562;2023-04-30T06:49:27;100669.14;;;7.36;77.46
57024;BME280;42916;54.346;18.562;2023-04-30T06:51:54;100680.25;;;7.46;77.08
57024;BME280;42916;54.346;18.562;2023-04-30T06:54:23;100676.33;;;7.51;76.02
57024;BME280;42916;54.346;18.562;2023-04-30T06:56:52;100681.27;;;7.57;76.27
57024;BME280;42916;54.346;18.562;2023-04-30T06:59:19;100687.20;;;7.61;75.48
57024;BME280;42916;54.346;18.562;2023-04-30T07:01:46;100693.91;;;7.64;75.26
57024;BME280;42916;54.346;18.562;2023-04-30T07:04:13;100692.89;;;7.65;74.29
57024;BME280;42916;54.346;18.562;2023-04-30T07:06:39;100691.30;;;7.68;73.88
57024;BME280;42916;54.346;18.562;2023-04-30T07:09:06;100687.54;;;7.76;73.89
57024;BME280;42916;54.346;18.562;2023-04-30T07:11:33;100691.69;;;7.86;73.36
57024;BME280;42916;54.346;18.562;2023-04-30T07:13:59;100695.37;;;7.98;73.42
57024;BME280;42916;54.346;18.562;2023-04-30T07:16:26;100715.33;;;8.04;71.45
57024;BME280;42916;54.346;18.562;2023-04-30T07:18:53;100704.57;;;8.01;70.27
57024;BME280;42916;54.346;18.562;2023-04-30T07:21:20;100702.54;;;8.06;70.64
57024;BME280;42916;54.346;18.562;2023-04-30T07:23:47;100707.79;;;8.14;70.50
57024;BME280;42916;54.346;18.562;2023-04-30T07:26:16;100708.70;;;8.20;69.32
57024;BME280;42916;54.346;18.562;2023-04-30T07:28:46;100718.88;;;8.23;68.71
57024;BME280;42916;54.346;18.562;2023-04-30T07:31:13;100711.15;;;8.26;68.47
57024;BME280;42916;54.346;18.562;2023-04-30T07:33:40;100714.85;;;8.36;67.48
57024;BME280;42916;54.346;18.562;2023-04-30T07:36:07;100710.88;;;8.42;66.77
57024;BME280;42916;54.346;18.562;2023-04-30T07:38:34;100709.04;;;8.49;67.39
57024;BME280;42916;54.346;18.562;2023-04-30T07:41:02;100711.05;;;8.61;67.40
57024;BME280;42916;54.346;18.562;2023-04-30T07:43:28;100713.27;;;8.75;67.30
57024;BME280;42916;54.346;18.562;2023-04-30T07:45:57;100726.02;;;8.88;66.53
57024;BME280;42916;54.346;18.562;2023-04-30T07:48:23;100722.50;;;8.91;65.02
57024;BME280;42916;54.346;18.562;2023-04-30T07:50:50;100716.65;;;8.92;64.40
57024;BME280;42916;54.346;18.562;2023-04-30T07:53:17;100717.66;;;8.98;64.17
57024;BME280;42916;54.346;18.562;2023-04-30T07:55:44;100722.26;;;9.00;62.00
57024;BME280;42916;54.346;18.562;2023-04-30T07:58:10;100729.08;;;8.99;62.79
57024;BME280;42916;54.346;18.562;2023-04-30T08:00:37;100733.30;;;9.01;62.53
57024;BME280;42916;54.346;18.562;2023-04-30T08:03:04;100729.59;;;9.08;62.54
57024;BME280;42916;54.346;18.562;2023-04-30T08:05:31;100725.09;;;9.20;62.21
57024;BME280;42916;54.346;18.562;2023-04-30T08:07:57;100734.63;;;9.30;59.31
57024;BME280;42916;54.346;18.562;2023-04-30T08:10:24;100737.96;;;9.31;58.76
57024;BME280;42916;54.346;18.562;2023-04-30T08:12:51;100735.70;;;9.36;58.21
57024;BME280;42916;54.346;18.562;2023-04-30T08:15:18;100743.95;;;9.36;58.91
57024;BME280;42916;54.346;18.562;2023-04-30T08:17:50;100744.65;;;9.31;57.51
57024;BME280;42916;54.346;18.562;2023-04-30T08:20:17;100746.95;;;9.27;57.28
57024;BME280;42916;54.346;18.562;2023-04-30T08:22:45;100749.48;;;9.36;56.81
57024;BME280;42916;54.346;18.562;2023-04-30T08:25:13;100757.16;;;9.45;57.01
57024;BME280;42916;54.346;18.562;2023-04-30T08:27:40;100754.05;;;9.56;56.20
57024;BME280;42916;54.346;18.562;2023-04-30T08:30:07;100756.00;;;9.70;54.76
57024;BME280;42916;54.346;18.562;2023-04-30T08:32:34;100758.98;;;9.79;54.52
57024;BME280;42916;54.346;18.562;2023-04-30T08:35:03;100767.70;;;9.95;53.80
57024;BME280;42916;54.346;18.562;2023-04-30T08:37:30;100765.74;;;10.07;53.84
57024;BME280;42916;54.346;18.562;2023-04-30T08:39:57;100765.49;;;10.10;53.57
57024;BME280;42916;54.346;18.562;2023-04-30T08:42:27;100767.41;;;10.11;53.83
57024;BME280;42916;54.346;18.562;2023-04-30T08:44:55;100773.56;;;10.15;54.49
57024;BME280;42916;54.346;18.562;2023-04-30T08:47:23;100783.75;;;10.13;52.91
57024;BME280;42916;54.346;18.562;2023-04-30T08:49:49;100783.17;;;10.01;51.63
57024;BME280;42916;54.346;18.562;2023-04-30T08:52:18;100782.64;;;9.98;52.36
57024;BME280;42916;54.346;18.562;2023-04-30T08:54:46;100782.86;;;10.10;52.55
57024;BME280;42916;54.346;18.562;2023-04-30T08:57:13;100784.66;;;10.27;52.97
57024;BME280;42916;54.346;18.562;2023-04-30T08:59:44;100787.20;;;10.29;51.80
57024;BME280;42916;54.346;18.562;2023-04-30T09:02:11;100786.77;;;10.24;51.41
57024;BME280;42916;54.346;18.562;2023-04-30T09:04:38;100790.83;;;10.22;51.02
57024;BME280;42916;54.346;18.562;2023-04-30T09:07:05;100790.83;;;10.23;50.24
57024;BME280;42916;54.346;18.562;2023-04-30T09:09:37;100789.96;;;10.23;50.49
57024;BME280;42916;54.346;18.562;2023-04-30T09:12:14;100792.28;;;10.30;51.03
57024;BME280;42916;54.346;18.562;2023-04-30T09:17:29;100789.45;;;10.53;49.64
57024;BME280;42916;54.346;18.562;2023-04-30T09:20:12;100802.48;;;10.54;49.47
57024;BME280;42916;54.346;18.562;2023-04-30T09:22:40;100812.20;;;10.44;48.89
57024;BME280;42916;54.346;18.562;2023-04-30T09:25:09;100804.80;;;10.35;49.74
57024;BME280;42916;54.346;18.562;2023-04-30T09:27:36;100808.47;;;10.29;50.04
57024;BME280;42916;54.346;18.562;2023-04-30T09:30:03;100809.39;;;10.31;50.27
57024;BME280;42916;54.346;18.562;2023-04-30T09:32:31;100814.77;;;10.48;50.13
57024;BME280;42916;54.346;18.562;2023-04-30T09:34:57;100813.72;;;10.53;49.52
57024;BME280;42916;54.346;18.562;2023-04-30T09:37:35;100816.50;;;10.50;48.59
57024;BME280;42916;54.346;18.562;2023-04-30T09:40:02;100817.77;;;10.48;48.76
57024;BME280;42916;54.346;18.562;2023-04-30T09:42:29;100821.98;;;10.47;48.57
57024;BME280;42916;54.346;18.562;2023-04-30T09:44:56;100810.90;;;10.50;48.61
57024;BME280;42916;54.346;18.562;2023-04-30T09:47:28;100817.17;;;10.61;47.92
57024;BME280;42916;54.346;18.562;2023-04-30T09:49:55;100813.79;;;10.73;48.08
57024;BME280;42916;54.346;18.562;2023-04-30T09:52:22;100822.99;;;10.89;47.30
57024;BME280;42916;54.346;18.562;2023-04-30T09:54:48;100821.63;;;10.96;46.85
57024;BME280;42916;54.346;18.562;2023-04-30T09:57:15;100818.75;;;10.93;46.23
57024;BME280;42916;54.346;18.562;2023-04-30T09:59:45;100819.92;;;10.98;45.43
57024;BME280;42916;54.346;18.562;2023-04-30T10:02:14;100820.60;;;11.00;43.64
57024;BME280;42916;54.346;18.562;2023-04-30T10:04:43;100819.12;;;10.96;43.44
57024;BME280;42916;54.346;18.562;2023-04-30T10:07:11;100816.33;;;10.95;44.18
57024;BME280;42916;54.346;18.562;2023-04-30T10:12:53;100831.30;;;11.18;42.93
57024;BME280;42916;54.346;18.562;2023-04-30T10:15:15;100820.04;;;11.20;42.97
57024;BME280;42916;54.346;18.562;2023-04-30T10:17:46;100818.10;;;11.18;42.95
57024;BME280;42916;54.346;18.562;2023-04-30T10:20:16;100829.50;;;11.15;43.12
57024;BME280;42916;54.346;18.562;2023-04-30T10:22:45;100815.96;;;11.06;43.99
57024;BME280;42916;54.346;18.562;2023-04-30T10:25:13;100823.77;;;10.95;42.74
57024;BME280;42916;54.346;18.562;2023-04-30T10:27:40;100825.30;;;10.75;42.10
57024;BME280;42916;54.346;18.562;2023-04-30T10:30:09;100820.16;;;10.76;42.58
57024;BME280;42916;54.346;18.562;2023-04-30T10:35:25;100817.41;;;10.81;42.11
57024;BME280;42916;54.346;18.562;2023-04-30T10:38:17;100820.90;;;10.91;42.75
57024;BME280;42916;54.346;18.562;2023-04-30T10:40:47;100822.05;;;11.02;41.45
57024;BME280;42916;54.346;18.562;2023-04-30T10:43:16;100826.61;;;11.01;40.15
57024;BME280;42916;54.346;18.562;2023-04-30T10:45:44;100826.53;;;11.06;40.03
57024;BME280;42916;54.346;18.562;2023-04-30T10:48:14;100828.17;;;11.10;39.58
57024;BME280;42916;54.346;18.562;2023-04-30T10:50:43;100828.66;;;11.21;40.08
57024;BME280;42916;54.346;18.562;2023-04-30T10:53:13;100823.55;;;11.25;40.49
57024;BME280;42916;54.346;18.562;2023-04-30T10:55:57;100828.77;;;11.31;40.48
57024;BME280;42916;54.346;18.562;2023-04-30T10:58:36;100818.05;;;11.41;40.25
57024;BME280;42916;54.346;18.562;2023-04-30T11:01:16;100825.30;;;11.48;40.16
57024;BME280;42916;54.346;18.562;2023-04-30T11:04:04;100824.98;;;11.49;40.22
57024;BME280;42916;54.346;18.562;2023-04-30T11:09:17;100824.75;;;11.51;38.40
57024;BME280;42916;54.346;18.562;2023-04-30T11:11:44;100830.98;;;11.60;38.34
57024;BME280;42916;54.346;18.562;2023-04-30T11:14:19;100825.05;;;11.57;38.19
57024;BME280;42916;54.346;18.562;2023-04-30T11:16:52;100832.95;;;11.54;38.05
57024;BME280;42916;54.346;18.562;2023-04-30T11:19:21;100826.77;;;11.62;39.00
57024;BME280;42916;54.346;18.562;2023-04-30T11:27:27;100838.05;;;11.79;39.45
57024;BME280;42916;54.346;18.562;2023-04-30T11:29:55;100832.27;;;11.77;39.90
57024;BME280;42916;54.346;18.562;2023-04-30T11:32:24;100831.70;;;11.86;39.75
57024;BME280;42916;54.346;18.562;2023-04-30T11:34:54;100835.77;;;11.99;39.44
57024;BME280;42916;54.346;18.562;2023-04-30T11:37:30;100839.63;;;11.95;37.35
57024;BME280;42916;54.346;18.562;2023-04-30T11:40:00;100838.23;;;11.81;37.61
57024;BME280;42916;54.346;18.562;2023-04-30T11:42:28;100832.98;;;11.91;38.28
57024;BME280;42916;54.346;18.562;2023-04-30T11:45:08;100837.55;;;11.99;38.49
57024;BME280;42916;54.346;18.562;2023-04-30T11:50:08;100837.48;;;12.47;39.05
57024;BME280;42916;54.346;18.562;2023-04-30T11:52:35;100836.20;;;12.53;37.58
57024;BME280;42916;54.346;18.562;2023-04-30T11:55:07;100839.00;;;12.56;38.13
57024;BME280;42916;54.346;18.562;2023-04-30T11:57:42;100845.11;;;12.66;36.89
57024;BME280;42916;54.346;18.562;2023-04-30T12:00:16;100842.30;;;12.69;36.13
57024;BME280;42916;54.346;18.562;2023-04-30T12:02:46;100846.41;;;12.58;36.04
57024;BME280;42916;54.346;18.562;2023-04-30T12:05:14;100841.14;;;12.69;36.87
57024;BME280;42916;54.346;18.562;2023-04-30T12:07:46;100845.23;;;12.85;37.27
57024;BME280;42916;54.346;18.562;2023-04-30T12:10:13;100839.88;;;13.04;37.31
57024;BME280;42916;54.346;18.562;2023-04-30T12:12:42;100842.12;;;13.31;37.58
57024;BME280;42916;54.346;18.562;2023-04-30T12:15:10;100847.55;;;13.51;36.91
57024;BME280;42916;54.346;18.562;2023-04-30T12:17:37;100838.02;;;13.54;37.75
57024;BME280;42916;54.346;18.562;2023-04-30T12:20:05;100841.77;;;13.81;36.97
57024;BME280;42916;54.346;18.562;2023-04-30T12:22:32;100838.41;;;13.88;36.92
57024;BME280;42916;54.346;18.562;2023-04-30T12:24:59;100849.60;;;13.97;36.10
57024;BME280;42916;54.346;18.562;2023-04-30T12:27:26;100852.59;;;14.05;35.69
57024;BME280;42916;54.346;18.562;2023-04-30T12:29:53;100857.16;;;14.01;35.15
57024;BME280;42916;54.346;18.562;2023-04-30T12:32:21;100870.25;;;14.02;34.29
57024;BME280;42916;54.346;18.562;2023-04-30T12:34:48;100852.83;;;14.11;34.90
57024;BME280;42916;54.346;18.562;2023-04-30T12:37:15;100855.33;;;14.41;35.13
57024;BME280;42916;54.346;18.562;2023-04-30T12:39:45;100852.99;;;14.47;34.44
57024;BME280;42916;54.346;18.562;2023-04-30T12:42:17;100852.83;;;14.57;35.10
57024;BME280;42916;54.346;18.562;2023-04-30T12:44:44;100857.06;;;14.65;34.85
57024;BME280;42916;54.346;18.562;2023-04-30T12:47:11;100854.56;;;14.89;35.05
57024;BME280;42916;54.346;18.562;2023-04-30T12:49:39;100852.44;;;15.06;34.66
57024;BME280;42916;54.346;18.562;2023-04-30T12:52:11;100859.45;;;15.25;33.56
57024;BME280;42916;54.346;18.562;2023-04-30T12:54:39;100849.05;;;15.37;33.61
57024;BME280;42916;54.346;18.562;2023-04-30T12:57:10;100855.15;;;15.43;33.26
57024;BME280;42916;54.346;18.562;2023-04-30T12:59:58;100850.40;;;15.58;33.76
57024;BME280;42916;54.346;18.562;2023-04-30T13:02:27;100846.75;;;15.78;32.74
57024;BME280;42916;54.346;18.562;2023-04-30T13:04:54;100856.92;;;16.03;33.43
57024;BME280;42916;54.346;18.562;2023-04-30T13:07:22;100860.98;;;16.16;31.94
57024;BME280;42916;54.346;18.562;2023-04-30T13:09:49;100866.19;;;16.07;31.85
57024;BME280;42916;54.346;18.562;2023-04-30T13:12:16;100861.38;;;15.89;32.02
57024;BME280;42916;54.346;18.562;2023-04-30T13:14:43;100863.68;;;15.82;32.10
57024;BME280;42916;54.346;18.562;2023-04-30T13:17:10;100861.77;;;15.82;32.57
57024;BME280;42916;54.346;18.562;2023-04-30T13:19:39;100863.70;;;15.94;32.59
57024;BME280;42916;54.346;18.562;2023-04-30T13:22:06;100862.81;;;16.13;32.64
57024;BME280;42916;54.346;18.562;2023-04-30T13:24:33;100876.04;;;16.39;32.07
57024;BME280;42916;54.346;18.562;2023-04-30T13:26:59;100865.36;;;16.32;32.18
57024;BME280;42916;54.346;18.562;2023-04-30T13:29:28;100862.53;;;16.65;32.95
57024;BME280;42916;54.346;18.562;2023-04-30T13:31:54;100861.04;;;17.07;33.20